Terminal Aerodrome Forecast
Issued by NWS Wakefield, VA

Home | Current Version | Previous Version | Text Only | Print | Product List | Glossary On
Versions: 1 2 3 4 5 6 7 8 9 10 11 12 13 14 15 16 17 18 19
478
FTUS41 KAKQ 291136
TAFORF
TAF
KORF 291136Z 2912/3012 23012KT P6SM BKN015
     FM291300 23012KT P6SM SCT015 BKN250
     FM291400 22012G18KT P6SM SCT040 BKN250
     FM300000 22010KT P6SM SCT250=

USA.gov is the U.S. government's official web portal to all federal, state and local government web resources and services.